Hauptseite
METAR-TAF:

METAR-TAF

Flughäfen :

Neuburg, Deutschland

Fliegerhorst Neuburg

Breite: 48-43N, Länge: 011-13E, Höhe: 380 m

Beobachtung

Neuester Wetterbericht von vor 29 Minuten, um 13:20 UTC
Wind 12 kt aus Ost/Nordost
Temperatur 1°C
Luftfeuchtigkeit 47%
Luftdruck 1018 hPa
Sichtweite 10 km oder mehr

METAR: ETSN 241320Z 07012KT 9999 01/M09 Q1018 BLU+

Zeit: 14:49 (13:49 UTC)

Prognose

Neuester Wetterbericht von vor 2 Stunden und 49 Minuten, um 11:00 UTC
Gültige Prognose vom 24 um 12 UTC bis 24 um 21 UTC
Wind 15 kt aus Ost/Nordost, Böen bis zu 25 kt
Sichtweite 10 km oder mehr
Leicht bewölkt in der Höhe von 3000 ft

TAF: ETSN 241100Z 2412/2421 07015G25KT 9999 NSW FEW030 BY ETGL

Wetterbeobachtungen und Prognosen von mehr als 4000 Flughäfen (METAR und TAF Bericht).

Die verfügbaren Stationen werden durch gelbe und rote Markierungen auf der Karte dargestellt.

Führen Sie die Maus auf sie, um den Namen der Station zu sehen.

Darauf klicken, um die Beobachtung von Wetterbeobachtungen und Prognosen zu sehen.

Um die Karte zu ändern : klicken Sie auf den grünen Tasten mit einem schwarzen Kreuz Zum Vergrößern, auf den grünen Button mit einem Gedankenstrich zu verkleinern, oder auf die grünen Pfeile für benachbarte Karten.


METAR-TAF: